Gondomar, Spain
Current Conditions -  °F | °C
As of 5:00 AM on Sunday 21 Dec 2014 (Local Time) from LEVX Reporting Station
Light Fog Light Fog  
Wind Chill:   Ceiling: Unl
Heat Index:   Visibility: 2.5mi
Dew Point:   Wind: 2mph
Humidity: 100%   Direction: NA
Pressure: 30.5"   Gusts: NA
Location:  42.11°N, 8.75°W
Report Text: LEVX 210400Z VRB02KT 4000 BCFG NSC 09/09 Q1033 TEMPO 0350 FG
Loading
Personal Weather Stations






























Interactive Weather Map New forecast layout! Learn more

10-Day Weather Forecast

Advertisements
Track Severe Weather on mobile